sensor_id;sensor_type;location;lat;lon;timestamp;temperature;humidity
48912;DHT22;34722;52.108;5.044;2022-07-23T00:01:18;15.60;70.10
48912;DHT22;34722;52.108;5.044;2022-07-23T00:03:44;15.60;75.90
48912;DHT22;34722;52.108;5.044;2022-07-23T00:06:09;15.60;79.80
48912;DHT22;34722;52.108;5.044;2022-07-23T00:08:35;15.50;82.60
48912;DHT22;34722;52.108;5.044;2022-07-23T00:11:01;15.50;81.50
48912;DHT22;34722;52.108;5.044;2022-07-23T00:13:27;15.40;85.20
48912;DHT22;34722;52.108;5.044;2022-07-23T00:15:52;15.40;87.20
48912;DHT22;34722;52.108;5.044;2022-07-23T00:18:18;15.30;90.50
48912;DHT22;34722;52.108;5.044;2022-07-23T00:20:44;15.30;89.00
48912;DHT22;34722;52.108;5.044;2022-07-23T00:23:10;15.30;86.90
48912;DHT22;34722;52.108;5.044;2022-07-23T00:25:36;15.30;88.50
48912;DHT22;34722;52.108;5.044;2022-07-23T00:28:02;15.30;89.30
48912;DHT22;34722;52.108;5.044;2022-07-23T00:30:29;15.20;92.00
48912;DHT22;34722;52.108;5.044;2022-07-23T00:32:57;15.20;94.30
48912;DHT22;34722;52.108;5.044;2022-07-23T00:35:30;15.10;96.10
48912;DHT22;34722;52.108;5.044;2022-07-23T00:37:57;15.10;98.10
48912;DHT22;34722;52.108;5.044;2022-07-23T00:40:24;15.10;98.60
48912;DHT22;34722;52.108;5.044;2022-07-23T00:42:50;15.10;99.90
48912;DHT22;34722;52.108;5.044;2022-07-23T00:45:16;15.00;99.90
48912;DHT22;34722;52.108;5.044;2022-07-23T00:47:42;14.90;99.90
48912;DHT22;34722;52.108;5.044;2022-07-23T00:50:09;14.90;99.90
48912;DHT22;34722;52.108;5.044;2022-07-23T00:52:36;14.90;99.90
48912;DHT22;34722;52.108;5.044;2022-07-23T00:55:03;14.90;99.90
48912;DHT22;34722;52.108;5.044;2022-07-23T00:57:29;14.90;99.90
48912;DHT22;34722;52.108;5.044;2022-07-23T00:59:56;14.90;99.90
48912;DHT22;34722;52.108;5.044;2022-07-23T01:02:23;14.80;99.90
48912;DHT22;34722;52.108;5.044;2022-07-23T01:04:49;14.80;99.90
48912;DHT22;34722;52.108;5.044;2022-07-23T01:07:16;14.80;99.90
48912;DHT22;34722;52.108;5.044;2022-07-23T01:09:42;14.70;99.90
48912;DHT22;34722;52.108;5.044;2022-07-23T01:12:08;14.70;99.90
48912;DHT22;34722;52.108;5.044;2022-07-23T01:14:34;14.60;99.90
48912;DHT22;34722;52.108;5.044;2022-07-23T01:17:00;14.60;99.90
48912;DHT22;34722;52.108;5.044;2022-07-23T01:19:25;14.60;99.90
48912;DHT22;34722;52.108;5.044;2022-07-23T01:21:51;14.60;99.90
48912;DHT22;34722;52.108;5.044;2022-07-23T01:24:19;14.60;99.90
48912;DHT22;34722;52.108;5.044;2022-07-23T01:26:46;14.60;99.90
48912;DHT22;34722;52.108;5.044;2022-07-23T01:29:12;14.60;99.90
48912;DHT22;34722;52.108;5.044;2022-07-23T01:31:38;14.50;99.90
48912;DHT22;34722;52.108;5.044;2022-07-23T01:34:03;14.50;99.90
48912;DHT22;34722;52.108;5.044;2022-07-23T01:36:30;14.40;99.90
48912;DHT22;34722;52.108;5.044;2022-07-23T01:38:56;14.40;99.90
48912;DHT22;34722;52.108;5.044;2022-07-23T01:41:21;14.30;99.90
48912;DHT22;34722;52.108;5.044;2022-07-23T01:43:47;14.30;99.90
48912;DHT22;34722;52.108;5.044;2022-07-23T01:46:13;14.20;99.90
48912;DHT22;34722;52.108;5.044;2022-07-23T01:48:39;14.20;99.90
48912;DHT22;34722;52.108;5.044;2022-07-23T01:51:05;14.20;99.90
48912;DHT22;34722;52.108;5.044;2022-07-23T01:53:30;14.20;99.90
48912;DHT22;34722;52.108;5.044;2022-07-23T01:55:57;14.20;99.90
48912;DHT22;34722;52.108;5.044;2022-07-23T01:58:23;14.20;99.90
48912;DHT22;34722;52.108;5.044;2022-07-23T02:00:49;14.20;99.90
48912;DHT22;34722;52.108;5.044;2022-07-23T02:03:14;14.20;99.90
48912;DHT22;34722;52.108;5.044;2022-07-23T02:05:40;14.30;99.90
48912;DHT22;34722;52.108;5.044;2022-07-23T02:08:06;14.30;99.90
48912;DHT22;34722;52.108;5.044;2022-07-23T02:10:31;14.20;99.90
48912;DHT22;34722;52.108;5.044;2022-07-23T02:12:57;14.20;99.90
48912;DHT22;34722;52.108;5.044;2022-07-23T02:15:23;14.10;99.90
48912;DHT22;34722;52.108;5.044;2022-07-23T02:17:49;14.10;99.90
48912;DHT22;34722;52.108;5.044;2022-07-23T02:20:14;14.10;99.90
48912;DHT22;34722;52.108;5.044;2022-07-23T02:22:40;14.10;99.90
48912;DHT22;34722;52.108;5.044;2022-07-23T02:25:07;14.00;99.90
48912;DHT22;34722;52.108;5.044;2022-07-23T02:27:33;14.00;99.90
48912;DHT22;34722;52.108;5.044;2022-07-23T02:29:59;13.90;99.90
48912;DHT22;34722;52.108;5.044;2022-07-23T02:32:25;13.90;99.90
48912;DHT22;34722;52.108;5.044;2022-07-23T02:34:51;13.80;99.90
48912;DHT22;34722;52.108;5.044;2022-07-23T02:37:17;13.80;99.90
48912;DHT22;34722;52.108;5.044;2022-07-23T02:39:43;13.80;99.90
48912;DHT22;34722;52.108;5.044;2022-07-23T02:42:08;13.80;99.90
48912;DHT22;34722;52.108;5.044;2022-07-23T02:44:34;13.80;99.90
48912;DHT22;34722;52.108;5.044;2022-07-23T02:47:00;13.80;99.90
48912;DHT22;34722;52.108;5.044;2022-07-23T02:49:26;13.80;99.90
48912;DHT22;34722;52.108;5.044;2022-07-23T02:51:52;13.70;99.90
48912;DHT22;34722;52.108;5.044;2022-07-23T02:54:17;13.70;99.90
48912;DHT22;34722;52.108;5.044;2022-07-23T02:56:43;13.70;99.90
48912;DHT22;34722;52.108;5.044;2022-07-23T02:59:08;13.70;99.90
48912;DHT22;34722;52.108;5.044;2022-07-23T03:01:35;13.60;99.90
48912;DHT22;34722;52.108;5.044;2022-07-23T03:04:00;13.60;99.90
48912;DHT22;34722;52.108;5.044;2022-07-23T03:06:27;13.60;99.90
48912;DHT22;34722;52.108;5.044;2022-07-23T03:08:53;13.60;99.90
48912;DHT22;34722;52.108;5.044;2022-07-23T03:11:19;13.60;99.90
48912;DHT22;34722;52.108;5.044;2022-07-23T03:13:45;13.60;99.90
48912;DHT22;34722;52.108;5.044;2022-07-23T03:16:10;13.70;99.90
48912;DHT22;34722;52.108;5.044;2022-07-23T03:18:36;13.70;99.90
48912;DHT22;34722;52.108;5.044;2022-07-23T03:21:02;13.70;99.90
48912;DHT22;34722;52.108;5.044;2022-07-23T03:23:27;13.70;99.90
48912;DHT22;34722;52.108;5.044;2022-07-23T03:25:54;13.70;99.90
48912;DHT22;34722;52.108;5.044;2022-07-23T03:28:20;13.70;99.90
48912;DHT22;34722;52.108;5.044;2022-07-23T03:30:46;13.70;99.90
48912;DHT22;34722;52.108;5.044;2022-07-23T03:33:15;13.80;99.90
48912;DHT22;34722;52.108;5.044;2022-07-23T03:35:45;13.70;99.90
48912;DHT22;34722;52.108;5.044;2022-07-23T03:38:11;13.80;99.90
48912;DHT22;34722;52.108;5.044;2022-07-23T03:40:37;13.80;99.90
48912;DHT22;34722;52.108;5.044;2022-07-23T03:43:03;13.80;99.90
48912;DHT22;34722;52.108;5.044;2022-07-23T03:45:29;13.90;99.90
48912;DHT22;34722;52.108;5.044;2022-07-23T03:47:55;13.90;99.90
48912;DHT22;34722;52.108;5.044;2022-07-23T03:50:21;13.90;99.90
48912;DHT22;34722;52.108;5.044;2022-07-23T03:52:46;13.90;99.90
48912;DHT22;34722;52.108;5.044;2022-07-23T03:55:12;13.90;99.90
48912;DHT22;34722;52.108;5.044;2022-07-23T03:57:38;14.00;99.90
48912;DHT22;34722;52.108;5.044;2022-07-23T04:00:05;13.90;99.90
48912;DHT22;34722;52.108;5.044;2022-07-23T04:02:32;13.90;99.90
48912;DHT22;34722;52.108;5.044;2022-07-23T04:04:58;13.90;99.90
48912;DHT22;34722;52.108;5.044;2022-07-23T04:07:25;13.90;99.90
48912;DHT22;34722;52.108;5.044;2022-07-23T04:09:50;13.90;99.90
48912;DHT22;34722;52.108;5.044;2022-07-23T04:12:16;13.90;99.90
48912;DHT22;34722;52.108;5.044;2022-07-23T04:14:41;13.90;99.90
48912;DHT22;34722;52.108;5.044;2022-07-23T04:17:07;13.90;99.90
48912;DHT22;34722;52.108;5.044;2022-07-23T04:19:33;13.90;99.90
48912;DHT22;34722;52.108;5.044;2022-07-23T04:21:59;13.90;99.90
48912;DHT22;34722;52.108;5.044;2022-07-23T04:24:25;13.90;99.90
48912;DHT22;34722;52.108;5.044;2022-07-23T04:26:51;13.90;99.90
48912;DHT22;34722;52.108;5.044;2022-07-23T04:29:16;14.00;99.90
48912;DHT22;34722;52.108;5.044;2022-07-23T04:31:42;14.00;99.90
48912;DHT22;34722;52.108;5.044;2022-07-23T04:34:08;14.10;99.90
48912;DHT22;34722;52.108;5.044;2022-07-23T04:36:33;14.10;99.90
48912;DHT22;34722;52.108;5.044;2022-07-23T04:38:59;14.20;99.90
48912;DHT22;34722;52.108;5.044;2022-07-23T04:41:24;14.30;99.90
48912;DHT22;34722;52.108;5.044;2022-07-23T04:43:50;14.40;99.90
48912;DHT22;34722;52.108;5.044;2022-07-23T04:46:16;14.40;99.90
48912;DHT22;34722;52.108;5.044;2022-07-23T04:48:41;14.50;99.90
48912;DHT22;34722;52.108;5.044;2022-07-23T04:51:07;14.50;99.90
48912;DHT22;34722;52.108;5.044;2022-07-23T04:53:33;14.60;99.90
48912;DHT22;34722;52.108;5.044;2022-07-23T04:56:00;14.80;99.90
48912;DHT22;34722;52.108;5.044;2022-07-23T04:58:25;14.80;99.90
48912;DHT22;34722;52.108;5.044;2022-07-23T05:00:51;14.90;99.90
48912;DHT22;34722;52.108;5.044;2022-07-23T05:03:17;15.10;99.90
48912;DHT22;34722;52.108;5.044;2022-07-23T05:05:43;15.20;99.90
48912;DHT22;34722;52.108;5.044;2022-07-23T05:08:08;15.30;99.90
48912;DHT22;34722;52.108;5.044;2022-07-23T05:10:34;15.40;99.90
48912;DHT22;34722;52.108;5.044;2022-07-23T05:13:00;15.50;99.90
48912;DHT22;34722;52.108;5.044;2022-07-23T05:15:25;15.70;99.90
48912;DHT22;34722;52.108;5.044;2022-07-23T05:17:51;15.80;99.90
48912;DHT22;34722;52.108;5.044;2022-07-23T05:20:17;15.90;99.90
48912;DHT22;34722;52.108;5.044;2022-07-23T05:22:42;16.00;92.00
48912;DHT22;34722;52.108;5.044;2022-07-23T05:25:08;16.10;83.50
48912;DHT22;34722;52.108;5.044;2022-07-23T05:27:34;16.20;72.10
48912;DHT22;34722;52.108;5.044;2022-07-23T05:30:00;16.50;68.70
48912;DHT22;34722;52.108;5.044;2022-07-23T05:32:25;16.70;62.70
48912;DHT22;34722;52.108;5.044;2022-07-23T05:34:51;17.00;46.90
48912;DHT22;34722;52.108;5.044;2022-07-23T05:37:17;17.50;21.30
48912;DHT22;34722;52.108;5.044;2022-07-23T05:39:42;18.20;1.00
48912;DHT22;34722;52.108;5.044;2022-07-23T05:42:08;19.30;1.00
48912;DHT22;34722;52.108;5.044;2022-07-23T05:44:34;20.60;1.00
48912;DHT22;34722;52.108;5.044;2022-07-23T05:46:59;21.20;99.90
48912;DHT22;34722;52.108;5.044;2022-07-23T05:49:25;21.40;1.00
48912;DHT22;34722;52.108;5.044;2022-07-23T05:51:51;21.60;99.90
48912;DHT22;34722;52.108;5.044;2022-07-23T05:54:17;21.90;99.90
48912;DHT22;34722;52.108;5.044;2022-07-23T05:56:42;22.20;99.90
48912;DHT22;34722;52.108;5.044;2022-07-23T05:59:08;22.20;1.00
48912;DHT22;34722;52.108;5.044;2022-07-23T06:01:34;22.10;1.00
48912;DHT22;34722;52.108;5.044;2022-07-23T06:04:00;22.00;1.00
48912;DHT22;34722;52.108;5.044;2022-07-23T06:06:25;22.20;1.00
48912;DHT22;34722;52.108;5.044;2022-07-23T06:08:51;22.50;1.00
48912;DHT22;34722;52.108;5.044;2022-07-23T06:11:16;22.60;1.00
48912;DHT22;34722;52.108;5.044;2022-07-23T06:13:42;23.30;99.90
48912;DHT22;34722;52.108;5.044;2022-07-23T06:16:08;24.00;99.90
48912;DHT22;34722;52.108;5.044;2022-07-23T06:18:34;24.60;99.90
48912;DHT22;34722;52.108;5.044;2022-07-23T06:20:59;25.40;99.90
48912;DHT22;34722;52.108;5.044;2022-07-23T06:23:25;26.00;99.90
48912;DHT22;34722;52.108;5.044;2022-07-23T06:25:51;26.30;99.90
48912;DHT22;34722;52.108;5.044;2022-07-23T06:28:17;27.00;96.20
48912;DHT22;34722;52.108;5.044;2022-07-23T06:30:43;27.40;58.80
48912;DHT22;34722;52.108;5.044;2022-07-23T06:33:08;27.50;36.30
48912;DHT22;34722;52.108;5.044;2022-07-23T06:35:35;27.50;25.90
48912;DHT22;34722;52.108;5.044;2022-07-23T06:38:00;28.00;10.00
48912;DHT22;34722;52.108;5.044;2022-07-23T06:40:26;28.30;1.00
48912;DHT22;34722;52.108;5.044;2022-07-23T06:42:52;28.60;1.00
48912;DHT22;34722;52.108;5.044;2022-07-23T06:45:17;28.70;1.00
48912;DHT22;34722;52.108;5.044;2022-07-23T06:47:43;28.10;1.00
48912;DHT22;34722;52.108;5.044;2022-07-23T06:50:09;27.90;1.00
48912;DHT22;34722;52.108;5.044;2022-07-23T06:52:35;28.40;1.00
48912;DHT22;34722;52.108;5.044;2022-07-23T06:55:01;29.10;1.00
48912;DHT22;34722;52.108;5.044;2022-07-23T06:57:26;28.50;1.00
48912;DHT22;34722;52.108;5.044;2022-07-23T06:59:52;27.90;1.00
48912;DHT22;34722;52.108;5.044;2022-07-23T07:02:18;28.10;1.00
48912;DHT22;34722;52.108;5.044;2022-07-23T07:04:44;28.50;1.00
48912;DHT22;34722;52.108;5.044;2022-07-23T07:07:09;29.50;1.00
48912;DHT22;34722;52.108;5.044;2022-07-23T07:09:35;29.60;1.00
48912;DHT22;34722;52.108;5.044;2022-07-23T07:12:01;29.70;1.00
48912;DHT22;34722;52.108;5.044;2022-07-23T07:14:27;29.90;1.00
48912;DHT22;34722;52.108;5.044;2022-07-23T07:16:53;30.00;1.00
48912;DHT22;34722;52.108;5.044;2022-07-23T07:19:18;30.00;1.00
48912;DHT22;34722;52.108;5.044;2022-07-23T07:21:44;30.50;1.00
48912;DHT22;34722;52.108;5.044;2022-07-23T07:24:10;30.00;1.00
48912;DHT22;34722;52.108;5.044;2022-07-23T07:26:35;30.10;1.00
48912;DHT22;34722;52.108;5.044;2022-07-23T07:29:05;30.00;1.00
48912;DHT22;34722;52.108;5.044;2022-07-23T07:31:31;30.70;1.00
48912;DHT22;34722;52.108;5.044;2022-07-23T07:33:57;30.90;1.00
48912;DHT22;34722;52.108;5.044;2022-07-23T07:36:23;31.40;1.00
48912;DHT22;34722;52.108;5.044;2022-07-23T07:38:48;29.90;1.00
48912;DHT22;34722;52.108;5.044;2022-07-23T07:41:14;29.70;1.00
48912;DHT22;34722;52.108;5.044;2022-07-23T07:43:41;30.20;1.00
48912;DHT22;34722;52.108;5.044;2022-07-23T07:46:06;30.80;1.00
48912;DHT22;34722;52.108;5.044;2022-07-23T07:48:38;30.90;1.00
48912;DHT22;34722;52.108;5.044;2022-07-23T07:51:04;31.40;1.00
48912;DHT22;34722;52.108;5.044;2022-07-23T07:53:30;31.90;1.00
48912;DHT22;34722;52.108;5.044;2022-07-23T07:55:56;32.10;1.00
48912;DHT22;34722;52.108;5.044;2022-07-23T07:58:21;31.70;1.00
48912;DHT22;34722;52.108;5.044;2022-07-23T08:00:47;31.20;1.00
48912;DHT22;34722;52.108;5.044;2022-07-23T08:03:12;31.80;1.00
48912;DHT22;34722;52.108;5.044;2022-07-23T08:05:38;31.50;1.00
48912;DHT22;34722;52.108;5.044;2022-07-23T08:08:04;32.20;1.00
48912;DHT22;34722;52.108;5.044;2022-07-23T08:10:30;32.30;1.00
48912;DHT22;34722;52.108;5.044;2022-07-23T08:12:57;32.30;1.00
48912;DHT22;34722;52.108;5.044;2022-07-23T08:15:25;32.00;1.00
48912;DHT22;34722;52.108;5.044;2022-07-23T08:17:51;32.70;1.00
48912;DHT22;34722;52.108;5.044;2022-07-23T08:20:19;32.80;1.00
48912;DHT22;34722;52.108;5.044;2022-07-23T08:25:20;32.60;1.00
48912;DHT22;34722;52.108;5.044;2022-07-23T08:27:46;32.90;1.00
48912;DHT22;34722;52.108;5.044;2022-07-23T08:30:12;33.40;1.00
48912;DHT22;34722;52.108;5.044;2022-07-23T08:33:17;33.20;1.00
48912;DHT22;34722;52.108;5.044;2022-07-23T08:35:52;33.40;1.00
48912;DHT22;34722;52.108;5.044;2022-07-23T08:38:38;33.40;1.00
48912;DHT22;34722;52.108;5.044;2022-07-23T08:41:27;33.80;1.00
48912;DHT22;34722;52.108;5.044;2022-07-23T08:44:07;34.20;1.00
48912;DHT22;34722;52.108;5.044;2022-07-23T08:46:53;34.60;1.00
48912;DHT22;34722;52.108;5.044;2022-07-23T08:49:22;33.70;1.00
48912;DHT22;34722;52.108;5.044;2022-07-23T08:51:48;33.80;1.00
48912;DHT22;34722;52.108;5.044;2022-07-23T08:54:23;34.00;1.00
48912;DHT22;34722;52.108;5.044;2022-07-23T08:57:19;33.10;1.00
48912;DHT22;34722;52.108;5.044;2022-07-23T08:59:51;33.00;1.00
48912;DHT22;34722;52.108;5.044;2022-07-23T09:02:24;33.00;1.00
48912;DHT22;34722;52.108;5.044;2022-07-23T09:04:51;33.30;1.00
48912;DHT22;34722;52.108;5.044;2022-07-23T09:08:15;33.30;1.00
48912;DHT22;34722;52.108;5.044;2022-07-23T09:11:53;34.10;1.00
48912;DHT22;34722;52.108;5.044;2022-07-23T09:13:56;34.30;1.00
48912;DHT22;34722;52.108;5.044;2022-07-23T09:16:30;34.00;1.00
48912;DHT22;34722;52.108;5.044;2022-07-23T09:19:07;34.50;1.00
48912;DHT22;34722;52.108;5.044;2022-07-23T09:21:37;34.80;1.00
48912;DHT22;34722;52.108;5.044;2022-07-23T09:24:10;34.30;1.00
48912;DHT22;34722;52.108;5.044;2022-07-23T09:26:40;34.40;1.00
48912;DHT22;34722;52.108;5.044;2022-07-23T09:29:16;34.10;1.00
48912;DHT22;34722;52.108;5.044;2022-07-23T09:31:48;33.30;1.00
48912;DHT22;34722;52.108;5.044;2022-07-23T09:34:35;33.00;1.00
48912;DHT22;34722;52.108;5.044;2022-07-23T09:37:15;33.50;1.00
48912;DHT22;34722;52.108;5.044;2022-07-23T09:39:43;33.60;1.00
48912;DHT22;34722;52.108;5.044;2022-07-23T09:42:24;33.90;1.00
48912;DHT22;34722;52.108;5.044;2022-07-23T09:44:56;33.90;1.00
48912;DHT22;34722;52.108;5.044;2022-07-23T09:47:24;34.20;1.00
48912;DHT22;34722;52.108;5.044;2022-07-23T09:50:04;34.10;1.00
48912;DHT22;34722;52.108;5.044;2022-07-23T09:52:37;33.50;1.00
48912;DHT22;34722;52.108;5.044;2022-07-23T09:55:19;33.60;1.00
48912;DHT22;34722;52.108;5.044;2022-07-23T09:57:53;34.80;1.00
48912;DHT22;34722;52.108;5.044;2022-07-23T10:00:22;34.90;1.00
48912;DHT22;34722;52.108;5.044;2022-07-23T10:03:03;35.20;1.00
48912;DHT22;34722;52.108;5.044;2022-07-23T10:05:35;35.20;1.00
48912;DHT22;34722;52.108;5.044;2022-07-23T10:08:02;34.60;1.00
48912;DHT22;34722;52.108;5.044;2022-07-23T10:10:31;34.80;1.00
48912;DHT22;34722;52.108;5.044;2022-07-23T10:13:00;35.30;1.00
48912;DHT22;34722;52.108;5.044;2022-07-23T10:15:50;35.20;1.00
48912;DHT22;34722;52.108;5.044;2022-07-23T10:18:17;34.60;1.00
48912;DHT22;34722;52.108;5.044;2022-07-23T10:20:43;34.80;1.00
48912;DHT22;34722;52.108;5.044;2022-07-23T10:23:33;35.20;1.00
48912;DHT22;34722;52.108;5.044;2022-07-23T10:26:10;35.80;1.00
48912;DHT22;34722;52.108;5.044;2022-07-23T10:31:37;35.90;1.00
48912;DHT22;34722;52.108;5.044;2022-07-23T10:39:36;35.60;1.00
48912;DHT22;34722;52.108;5.044;2022-07-23T10:42:14;35.70;1.00
48912;DHT22;34722;52.108;5.044;2022-07-23T10:44:47;35.60;1.00
48912;DHT22;34722;52.108;5.044;2022-07-23T10:47:33;36.00;1.00
48912;DHT22;34722;52.108;5.044;2022-07-23T10:50:26;36.00;1.00
48912;DHT22;34722;52.108;5.044;2022-07-23T10:53:12;36.00;1.00
48912;DHT22;34722;52.108;5.044;2022-07-23T10:55:42;36.00;1.00
48912;DHT22;34722;52.108;5.044;2022-07-23T10:58:08;35.90;1.00
48912;DHT22;34722;52.108;5.044;2022-07-23T11:00:36;36.70;1.00
48912;DHT22;34722;52.108;5.044;2022-07-23T11:03:05;36.10;1.00
48912;DHT22;34722;52.108;5.044;2022-07-23T11:05:47;35.00;1.00
48912;DHT22;34722;52.108;5.044;2022-07-23T11:08:17;35.80;1.00
48912;DHT22;34722;52.108;5.044;2022-07-23T11:10:49;36.70;1.00
48912;DHT22;34722;52.108;5.044;2022-07-23T11:24:08;37.60;1.00
48912;DHT22;34722;52.108;5.044;2022-07-23T11:31:59;37.40;1.00
48912;DHT22;34722;52.108;5.044;2022-07-23T11:34:33;37.50;1.00
48912;DHT22;34722;52.108;5.044;2022-07-23T11:37:07;37.30;1.00
48912;DHT22;34722;52.108;5.044;2022-07-23T11:39:37;37.10;1.00
48912;DHT22;34722;52.108;5.044;2022-07-23T11:42:04;36.80;1.00
48912;DHT22;34722;52.108;5.044;2022-07-23T11:44:36;37.10;1.00
48912;DHT22;34722;52.108;5.044;2022-07-23T11:47:10;37.20;1.00
48912;DHT22;34722;52.108;5.044;2022-07-23T11:49:37;37.70;1.00
48912;DHT22;34722;52.108;5.044;2022-07-23T11:52:11;38.10;1.00
48912;DHT22;34722;52.108;5.044;2022-07-23T11:54:49;38.20;1.00
48912;DHT22;34722;52.108;5.044;2022-07-23T11:57:15;38.00;1.00
48912;DHT22;34722;52.108;5.044;2022-07-23T11:59:42;38.20;1.00
48912;DHT22;34722;52.108;5.044;2022-07-23T12:02:08;38.30;1.00
48912;DHT22;34722;52.108;5.044;2022-07-23T12:04:41;38.10;1.00
48912;DHT22;34722;52.108;5.044;2022-07-23T12:09:52;38.60;1.00
48912;DHT22;34722;52.108;5.044;2022-07-23T12:12:18;38.40;1.00
48912;DHT22;34722;52.108;5.044;2022-07-23T12:14:58;38.50;1.00
48912;DHT22;34722;52.108;5.044;2022-07-23T12:17:35;38.30;1.00
48912;DHT22;34722;52.108;5.044;2022-07-23T12:20:05;37.50;1.00
48912;DHT22;34722;52.108;5.044;2022-07-23T12:25:08;37.30;1.00
48912;DHT22;34722;52.108;5.044;2022-07-23T12:27:38;37.30;1.00
48912;DHT22;34722;52.108;5.044;2022-07-23T12:30:20;36.40;1.00
48912;DHT22;34722;52.108;5.044;2022-07-23T12:32:47;34.60;1.00
48912;DHT22;34722;52.108;5.044;2022-07-23T12:35:13;34.40;1.00
48912;DHT22;34722;52.108;5.044;2022-07-23T12:37:41;34.10;1.00
48912;DHT22;34722;52.108;5.044;2022-07-23T12:42:50;32.70;1.00
48912;DHT22;34722;52.108;5.044;2022-07-23T12:45:16;32.40;1.00
48912;DHT22;34722;52.108;5.044;2022-07-23T12:48:05;31.50;1.00
48912;DHT22;34722;52.108;5.044;2022-07-23T12:50:53;31.30;1.00
48912;DHT22;34722;52.108;5.044;2022-07-23T12:56:15;30.70;1.00
48912;DHT22;34722;52.108;5.044;2022-07-23T13:04:13;30.20;1.00
48912;DHT22;34722;52.108;5.044;2022-07-23T19:05:56;22.90;1.00
48912;DHT22;34722;52.108;5.044;2022-07-23T19:08:22;22.80;1.00
48912;DHT22;34722;52.108;5.044;2022-07-23T19:10:49;22.80;99.90
48912;DHT22;34722;52.108;5.044;2022-07-23T19:13:14;22.60;99.90
48912;DHT22;34722;52.108;5.044;2022-07-23T19:15:40;22.60;99.90
48912;DHT22;34722;52.108;5.044;2022-07-23T19:18:06;22.60;99.90
48912;DHT22;34722;52.108;5.044;2022-07-23T19:20:32;22.40;1.80
48912;DHT22;34722;52.108;5.044;2022-07-23T19:22:58;22.30;56.80
48912;DHT22;34722;52.108;5.044;2022-07-23T19:25:26;22.20;99.90
48912;DHT22;34722;52.108;5.044;2022-07-23T19:27:52;22.20;99.90
48912;DHT22;34722;52.108;5.044;2022-07-23T19:30:18;22.10;1.00
48912;DHT22;34722;52.108;5.044;2022-07-23T19:32:44;22.00;1.00
48912;DHT22;34722;52.108;5.044;2022-07-23T19:35:10;21.90;1.00
48912;DHT22;34722;52.108;5.044;2022-07-23T19:37:36;21.80;1.00
48912;DHT22;34722;52.108;5.044;2022-07-23T19:40:03;21.80;1.00
48912;DHT22;34722;52.108;5.044;2022-07-23T19:42:31;21.70;1.00
48912;DHT22;34722;52.108;5.044;2022-07-23T19:44:57;21.70;99.90
48912;DHT22;34722;52.108;5.044;2022-07-23T19:47:23;21.60;99.90
48912;DHT22;34722;52.108;5.044;2022-07-23T19:49:49;21.50;1.00
48912;DHT22;34722;52.108;5.044;2022-07-23T19:52:15;21.50;1.00
48912;DHT22;34722;52.108;5.044;2022-07-23T19:54:41;21.40;1.00
48912;DHT22;34722;52.108;5.044;2022-07-23T19:57:10;21.40;1.00
48912;DHT22;34722;52.108;5.044;2022-07-23T19:59:36;21.30;1.00
48912;DHT22;34722;52.108;5.044;2022-07-23T20:02:05;21.20;1.00
48912;DHT22;34722;52.108;5.044;2022-07-23T20:04:31;21.20;1.00
48912;DHT22;34722;52.108;5.044;2022-07-23T20:06:57;21.10;1.00
48912;DHT22;34722;52.108;5.044;2022-07-23T20:09:24;21.10;1.00
48912;DHT22;34722;52.108;5.044;2022-07-23T20:11:52;21.00;1.00
48912;DHT22;34722;52.108;5.044;2022-07-23T20:14:19;21.00;1.00
48912;DHT22;34722;52.108;5.044;2022-07-23T20:16:47;21.00;1.00
48912;DHT22;34722;52.108;5.044;2022-07-23T20:19:21;21.00;1.00
48912;DHT22;34722;52.108;5.044;2022-07-23T20:21:47;21.00;1.00
48912;DHT22;34722;52.108;5.044;2022-07-23T20:24:18;21.00;1.00
48912;DHT22;34722;52.108;5.044;2022-07-23T20:26:45;20.90;2.70
48912;DHT22;34722;52.108;5.044;2022-07-23T20:29:12;20.80;7.30
48912;DHT22;34722;52.108;5.044;2022-07-23T20:31:38;20.80;17.00
48912;DHT22;34722;52.108;5.044;2022-07-23T20:34:08;20.80;21.40
48912;DHT22;34722;52.108;5.044;2022-07-23T20:36:40;20.80;23.20
48912;DHT22;34722;52.108;5.044;2022-07-23T20:39:07;20.70;26.50
48912;DHT22;34722;52.108;5.044;2022-07-23T20:41:34;20.60;29.20
48912;DHT22;34722;52.108;5.044;2022-07-23T20:44:05;20.50;32.60
48912;DHT22;34722;52.108;5.044;2022-07-23T20:46:31;20.50;35.90
48912;DHT22;34722;52.108;5.044;2022-07-23T20:49:04;20.50;37.80
48912;DHT22;34722;52.108;5.044;2022-07-23T20:51:30;20.50;37.20
48912;DHT22;34722;52.108;5.044;2022-07-23T20:53:57;20.50;42.00
48912;DHT22;34722;52.108;5.044;2022-07-23T20:56:23;20.40;48.80
48912;DHT22;34722;52.108;5.044;2022-07-23T20:58:49;20.40;42.20
48912;DHT22;34722;52.108;5.044;2022-07-23T21:01:16;20.30;48.80
48912;DHT22;34722;52.108;5.044;2022-07-23T21:03:42;20.30;53.30
48912;DHT22;34722;52.108;5.044;2022-07-23T21:06:10;20.20;48.90
48912;DHT22;34722;52.108;5.044;2022-07-23T21:08:36;20.20;44.50
48912;DHT22;34722;52.108;5.044;2022-07-23T21:11:02;20.10;42.10
48912;DHT22;34722;52.108;5.044;2022-07-23T21:13:28;20.10;43.50
48912;DHT22;34722;52.108;5.044;2022-07-23T21:15:54;20.10;37.20
48912;DHT22;34722;52.108;5.044;2022-07-23T21:18:19;20.00;27.90
48912;DHT22;34722;52.108;5.044;2022-07-23T21:20:45;20.00;31.60
48912;DHT22;34722;52.108;5.044;2022-07-23T21:23:32;19.90;28.20
48912;DHT22;34722;52.108;5.044;2022-07-23T21:25:59;19.90;28.10
48912;DHT22;34722;52.108;5.044;2022-07-23T21:28:25;19.80;25.80
48912;DHT22;34722;52.108;5.044;2022-07-23T21:30:50;19.80;30.00
48912;DHT22;34722;52.108;5.044;2022-07-23T21:33:16;19.80;27.80
48912;DHT22;34722;52.108;5.044;2022-07-23T21:35:42;19.70;23.40
48912;DHT22;34722;52.108;5.044;2022-07-23T21:38:08;19.70;28.10
48912;DHT22;34722;52.108;5.044;2022-07-23T21:40:33;19.60;27.90
48912;DHT22;34722;52.108;5.044;2022-07-23T21:43:02;19.60;36.10
48912;DHT22;34722;52.108;5.044;2022-07-23T21:45:28;19.60;37.60
48912;DHT22;34722;52.108;5.044;2022-07-23T21:47:54;19.60;44.80
48912;DHT22;34722;52.108;5.044;2022-07-23T21:50:19;19.50;43.20
48912;DHT22;34722;52.108;5.044;2022-07-23T21:52:45;19.50;44.40
48912;DHT22;34722;52.108;5.044;2022-07-23T21:55:11;19.50;45.30
48912;DHT22;34722;52.108;5.044;2022-07-23T21:57:37;19.40;45.10
48912;DHT22;34722;52.108;5.044;2022-07-23T22:00:07;19.40;53.40
48912;DHT22;34722;52.108;5.044;2022-07-23T22:02:34;19.40;53.40
48912;DHT22;34722;52.108;5.044;2022-07-23T22:05:00;19.40;47.60
48912;DHT22;34722;52.108;5.044;2022-07-23T22:07:25;19.30;51.10
48912;DHT22;34722;52.108;5.044;2022-07-23T22:09:51;19.30;57.90
48912;DHT22;34722;52.108;5.044;2022-07-23T22:12:17;19.30;65.40
48912;DHT22;34722;52.108;5.044;2022-07-23T22:14:42;19.30;64.00
48912;DHT22;34722;52.108;5.044;2022-07-23T22:17:08;19.20;69.20
48912;DHT22;34722;52.108;5.044;2022-07-23T22:19:34;19.20;73.40
48912;DHT22;34722;52.108;5.044;2022-07-23T22:21:59;19.20;73.60
48912;DHT22;34722;52.108;5.044;2022-07-23T22:24:26;19.10;83.60
48912;DHT22;34722;52.108;5.044;2022-07-23T22:26:51;19.00;88.30